Time;durP1;ratioP1;P1;durP2;ratioP2;P2;SDS_P1;SDS_P2;PMS_P1;PMS_P2;Temp;Humidity;BMP_temperature;BMP_pressure;BME280_temperature;BME280_humidity;BME280_pressure;Samples;Min_cycle;Max_cycle;Signal;HPM_P1;HPM_P2
2023/12/08 00:00:29;;;;;;;2.73;1.50;;;;;;;;;;5095973;28;20293;-63
2023/12/08 00:02:57;;;;;;;1.73;1.20;;;;;;;;;;5099619;28;20284;-63
2023/12/08 00:05:26;;;;;;;4.70;1.47;;;;;;;;;;5099417;28;20198;-63
2023/12/08 00:07:55;;;;;;;1.30;1.20;;;;;;;;;;5098301;28;20265;-63
2023/12/08 00:10:24;;;;;;;2.13;1.10;;;;;;;;;;5108711;28;20234;-63
2023/12/08 00:12:52;;;;;;;2.77;1.30;;;;;;;;;;5098947;28;20603;-63
2023/12/08 00:15:20;;;;;;;1.53;1.40;;;;;;;;;;5105854;28;20205;-63
2023/12/08 00:17:48;;;;;;;2.50;1.53;;;;;;;;;;5097880;28;20197;-63
2023/12/08 00:20:16;;;;;;;2.47;1.30;;;;;;;;;;5097239;28;20273;-62
2023/12/08 00:22:44;;;;;;;2.13;1.50;;;;;;;;;;5097857;28;20206;-63
2023/12/08 00:25:15;;;;;;;3.07;1.50;;;;;;;;;;5099548;28;20203;-63
2023/12/08 00:27:43;;;;;;;2.63;1.50;;;;;;;;;;5102403;28;20202;-63
2023/12/08 00:30:12;;;;;;;1.67;1.53;;;;;;;;;;5094335;28;20204;-63
2023/12/08 00:32:40;;;;;;;2.73;1.50;;;;;;;;;;5097501;28;20202;-61
2023/12/08 00:35:09;;;;;;;2.00;1.67;;;;;;;;;;5097501;28;20224;-63
2023/12/08 00:37:37;;;;;;;2.83;1.73;;;;;;;;;;5104335;28;20250;-63
2023/12/08 00:40:06;;;;;;;3.03;1.40;;;;;;;;;;5097025;28;20202;-62
2023/12/08 00:42:35;;;;;;;3.53;1.57;;;;;;;;;;5102619;28;20225;-63
2023/12/08 00:45:04;;;;;;;2.00;1.60;;;;;;;;;;5097471;28;20202;-63
2023/12/08 00:47:32;;;;;;;1.77;1.40;;;;;;;;;;5095517;28;20564;-63
2023/12/08 00:50:00;;;;;;;1.60;1.50;;;;;;;;;;5096895;28;20265;-63
2023/12/08 00:52:28;;;;;;;1.67;1.47;;;;;;;;;;5100090;28;20240;-63
2023/12/08 00:54:56;;;;;;;3.87;1.57;;;;;;;;;;5091513;28;20255;-63
2023/12/08 00:57:24;;;;;;;1.70;1.30;;;;;;;;;;5093589;28;20199;-63
2023/12/08 00:59:54;;;;;;;2.97;1.87;;;;;;;;;;5099779;28;20237;-63
2023/12/08 01:02:22;;;;;;;3.57;2.60;;;;;;;;;;5098231;28;20255;-63
2023/12/08 01:04:50;;;;;;;1.90;1.33;;;;;;;;;;5101653;28;20251;-64
2023/12/08 01:07:19;;;;;;;1.20;1.10;;;;;;;;;;5095111;28;20247;-63
2023/12/08 01:09:47;;;;;;;2.93;1.70;;;;;;;;;;5105946;28;20213;-64
2023/12/08 01:12:16;;;;;;;1.70;1.53;;;;;;;;;;5094164;28;20558;-64
2023/12/08 01:14:44;;;;;;;2.07;1.90;;;;;;;;;;5098641;28;20255;-64
2023/12/08 01:17:13;;;;;;;3.27;1.60;;;;;;;;;;5097245;28;20285;-63
2023/12/08 01:19:41;;;;;;;1.50;1.40;;;;;;;;;;5099865;28;20212;-63
2023/12/08 01:22:09;;;;;;;2.00;1.50;;;;;;;;;;5103309;28;20233;-63
2023/12/08 01:24:38;;;;;;;1.53;1.37;;;;;;;;;;5109747;28;20211;-63
2023/12/08 01:27:06;;;;;;;1.53;1.30;;;;;;;;;;5110771;28;20200;-61
2023/12/08 01:29:34;;;;;;;1.10;1.00;;;;;;;;;;5101798;28;20228;-62
2023/12/08 01:32:02;;;;;;;1.50;1.40;;;;;;;;;;5105168;28;20248;-62
2023/12/08 01:34:32;;;;;;;3.70;1.83;;;;;;;;;;5120302;28;20618;-62
2023/12/08 01:37:00;;;;;;;1.90;1.40;;;;;;;;;;5111513;28;20197;-62
2023/12/08 01:39:28;;;;;;;2.87;1.40;;;;;;;;;;5119597;28;20212;-63
2023/12/08 01:41:56;;;;;;;2.03;1.50;;;;;;;;;;5105574;28;20315;-64
2023/12/08 01:44:24;;;;;;;1.40;1.30;;;;;;;;;;5100520;28;20205;-63
2023/12/08 01:46:52;;;;;;;1.40;1.30;;;;;;;;;;5100626;28;20202;-64
2023/12/08 01:49:21;;;;;;;2.87;1.50;;;;;;;;;;5093215;28;20210;-64
2023/12/08 01:51:51;;;;;;;1.33;1.20;;;;;;;;;;5114027;28;20248;-64
2023/12/08 01:54:19;;;;;;;1.47;1.37;;;;;;;;;;5100779;28;20232;-63
2023/12/08 01:56:47;;;;;;;1.63;1.23;;;;;;;;;;5103566;28;20198;-64
2023/12/08 01:59:15;;;;;;;4.10;1.30;;;;;;;;;;5101960;28;20235;-64
2023/12/08 02:01:43;;;;;;;3.73;1.40;;;;;;;;;;5100276;28;20226;-64
2023/12/08 02:04:11;;;;;;;2.23;1.30;;;;;;;;;;5100130;28;20201;-64
2023/12/08 02:06:40;;;;;;;2.03;1.30;;;;;;;;;;5099101;28;20206;-63
2023/12/08 02:09:09;;;;;;;1.80;1.47;;;;;;;;;;5099955;28;20606;-63
2023/12/08 02:11:38;;;;;;;2.07;1.00;;;;;;;;;;5107089;28;20221;-63
2023/12/08 02:14:06;;;;;;;3.70;1.47;;;;;;;;;;5101994;28;20259;-63
2023/12/08 02:16:37;;;;;;;1.93;1.57;;;;;;;;;;5103904;28;20210;-63
2023/12/08 02:19:07;;;;;;;1.03;1.03;;;;;;;;;;5101931;28;20251;-63
2023/12/08 02:21:36;;;;;;;2.00;1.30;;;;;;;;;;5108703;28;20229;-63
2023/12/08 02:24:06;;;;;;;1.13;1.13;;;;;;;;;;5101539;28;20232;-63
2023/12/08 02:26:34;;;;;;;1.83;1.40;;;;;;;;;;5103805;28;20201;-63
2023/12/08 02:29:05;;;;;;;1.30;1.20;;;;;;;;;;5102994;28;20205;-64
2023/12/08 02:31:37;;;;;;;2.23;1.37;;;;;;;;;;5102188;28;20759;-64
2023/12/08 02:34:06;;;;;;;1.37;1.27;;;;;;;;;;5107214;28;20197;-62
2023/12/08 02:36:35;;;;;;;2.27;1.50;;;;;;;;;;5100109;28;20208;-64
2023/12/08 02:39:04;;;;;;;1.37;1.10;;;;;;;;;;5104716;28;20205;-62
2023/12/08 02:41:33;;;;;;;2.13;1.33;;;;;;;;;;5094400;28;20304;-64
2023/12/08 02:44:01;;;;;;;1.57;1.33;;;;;;;;;;5095790;28;20194;-63
2023/12/08 02:46:29;;;;;;;1.13;1.13;;;;;;;;;;5099572;28;20251;-64
2023/12/08 02:48:57;;;;;;;1.87;1.57;;;;;;;;;;5099561;28;20202;-62
2023/12/08 02:51:25;;;;;;;3.63;1.53;;;;;;;;;;5099319;28;20299;-64
2023/12/08 02:53:53;;;;;;;1.57;1.30;;;;;;;;;;5099856;28;20205;-64
2023/12/08 02:56:21;;;;;;;2.20;1.67;;;;;;;;;;5099852;28;20205;-63
2023/12/08 02:58:51;;;;;;;2.37;1.30;;;;;;;;;;5098614;28;20229;-63
2023/12/08 03:01:19;;;;;;;1.87;1.53;;;;;;;;;;5097512;28;20222;-63
2023/12/08 03:03:47;;;;;;;3.00;1.50;;;;;;;;;;5093144;28;20712;-63
2023/12/08 03:06:15;;;;;;;145.37;73.77;;;;;;;;;;5098824;28;20202;-64
2023/12/08 03:08:43;;;;;;;5.60;3.37;;;;;;;;;;5095150;28;20278;-64
2023/12/08 03:11:12;;;;;;;3.37;1.37;;;;;;;;;;5098871;28;20652;-64
2023/12/08 03:13:39;;;;;;;1.40;1.00;;;;;;;;;;5098942;28;20198;-64
2023/12/08 03:16:10;;;;;;;2.83;1.40;;;;;;;;;;5101322;28;20230;-62
2023/12/08 03:18:38;;;;;;;3.03;1.63;;;;;;;;;;5099591;28;20227;-64
2023/12/08 03:21:06;;;;;;;1.43;1.20;;;;;;;;;;5091522;28;20221;-62
2023/12/08 03:23:35;;;;;;;1.43;1.33;;;;;;;;;;5098865;28;20225;-62
2023/12/08 03:26:03;;;;;;;3.50;1.43;;;;;;;;;;5105455;28;20216;-64
2023/12/08 03:28:31;;;;;;;1.57;1.20;;;;;;;;;;5097917;28;20205;-64
2023/12/08 03:30:59;;;;;;;1.00;1.00;;;;;;;;;;5098762;28;20278;-64
2023/12/08 03:33:29;;;;;;;1.30;1.10;;;;;;;;;;5104409;28;20263;-64
2023/12/08 03:35:57;;;;;;;1.87;1.67;;;;;;;;;;5101819;28;20211;-64
2023/12/08 03:38:26;;;;;;;1.30;1.20;;;;;;;;;;5098733;28;20202;-63
2023/12/08 03:40:54;;;;;;;1.23;1.13;;;;;;;;;;5093369;28;20222;-62
2023/12/08 03:43:22;;;;;;;1.53;1.20;;;;;;;;;;5100008;28;20281;-63
2023/12/08 03:45:49;;;;;;;1.53;1.10;;;;;;;;;;5095825;28;20225;-63
2023/12/08 03:48:17;;;;;;;0.97;0.97;;;;;;;;;;5101320;28;20198;-63
2023/12/08 03:50:46;;;;;;;4.17;1.20;;;;;;;;;;5097881;28;20234;-62
2023/12/08 03:53:15;;;;;;;1.33;1.20;;;;;;;;;;5097445;28;20254;-64
2023/12/08 03:55:43;;;;;;;1.33;1.20;;;;;;;;;;5112002;28;20205;-65
2023/12/08 03:58:11;;;;;;;2.10;1.43;;;;;;;;;;5097747;28;20278;-64
2023/12/08 04:00:39;;;;;;;1.13;1.03;;;;;;;;;;5108653;28;20270;-64
2023/12/08 04:03:07;;;;;;;3.40;1.70;;;;;;;;;;5086626;28;20244;-64
2023/12/08 04:05:35;;;;;;;2.53;1.47;;;;;;;;;;5097703;28;20269;-64
2023/12/08 04:08:05;;;;;;;1.70;1.30;;;;;;;;;;5095500;28;20604;-65
2023/12/08 04:10:33;;;;;;;1.53;1.07;;;;;;;;;;5093997;28;20222;-65
2023/12/08 04:13:01;;;;;;;1.50;1.10;;;;;;;;;;5103617;28;20247;-65
2023/12/08 04:15:29;;;;;;;1.20;0.90;;;;;;;;;;5106373;28;20201;-64
2023/12/08 04:17:58;;;;;;;2.97;1.17;;;;;;;;;;5090857;28;20197;-64
2023/12/08 04:20:26;;;;;;;2.13;1.33;;;;;;;;;;5101836;28;20218;-63
2023/12/08 04:22:54;;;;;;;1.73;1.10;;;;;;;;;;5094238;28;20307;-64
2023/12/08 04:25:23;;;;;;;1.63;1.53;;;;;;;;;;5103799;28;20198;-63
2023/12/08 04:27:51;;;;;;;1.10;1.10;;;;;;;;;;5096703;28;20251;-64
2023/12/08 04:30:20;;;;;;;1.40;1.30;;;;;;;;;;5101528;28;20251;-64
2023/12/08 04:32:48;;;;;;;3.17;1.07;;;;;;;;;;5102042;28;20194;-64
2023/12/08 04:35:16;;;;;;;2.50;1.50;;;;;;;;;;5102496;28;20537;-63
2023/12/08 04:37:44;;;;;;;2.63;1.63;;;;;;;;;;5102697;28;20250;-63
2023/12/08 04:40:12;;;;;;;1.57;1.47;;;;;;;;;;5093193;28;20201;-64
2023/12/08 04:42:42;;;;;;;2.00;1.33;;;;;;;;;;5095257;28;20267;-64
2023/12/08 04:45:13;;;;;;;1.27;1.17;;;;;;;;;;5104648;28;20217;-64
2023/12/08 04:47:42;;;;;;;1.30;1.17;;;;;;;;;;5103790;28;20201;-64
2023/12/08 04:50:10;;;;;;;0.97;0.90;;;;;;;;;;5093048;28;20263;-64
2023/12/08 04:52:38;;;;;;;1.00;1.00;;;;;;;;;;5097311;28;20205;-64
2023/12/08 04:55:06;;;;;;;1.40;1.30;;;;;;;;;;5097205;28;20330;-64
2023/12/08 04:57:34;;;;;;;2.27;1.33;;;;;;;;;;5097085;28;20202;-64
2023/12/08 05:00:05;;;;;;;1.20;1.10;;;;;;;;;;5095832;28;20235;-64
2023/12/08 05:02:33;;;;;;;1.47;1.37;;;;;;;;;;5099951;28;20289;-64
2023/12/08 05:05:01;;;;;;;1.27;1.17;;;;;;;;;;5107351;28;20607;-64
2023/12/08 05:07:29;;;;;;;1.37;1.27;;;;;;;;;;5090433;28;20247;-64
2023/12/08 05:09:58;;;;;;;2.27;1.50;;;;;;;;;;5094887;28;20202;-64
2023/12/08 05:12:26;;;;;;;1.20;1.20;;;;;;;;;;5097143;28;20217;-64
2023/12/08 05:14:54;;;;;;;2.17;1.30;;;;;;;;;;5101068;28;20189;-65
2023/12/08 05:17:24;;;;;;;1.43;1.30;;;;;;;;;;5089391;28;20225;-64
2023/12/08 05:19:52;;;;;;;1.10;1.10;;;;;;;;;;5105762;28;20266;-64
2023/12/08 05:22:20;;;;;;;1.77;1.57;;;;;;;;;;5106561;28;20340;-64
2023/12/08 05:24:48;;;;;;;1.50;1.40;;;;;;;;;;5104183;28;20231;-63
2023/12/08 05:27:17;;;;;;;1.60;1.50;;;;;;;;;;5097481;28;20205;-64
2023/12/08 05:29:45;;;;;;;1.50;1.40;;;;;;;;;;5096953;28;20206;-64
2023/12/08 05:32:13;;;;;;;1.33;1.23;;;;;;;;;;5112281;28;20217;-64
2023/12/08 05:34:43;;;;;;;1.03;1.00;;;;;;;;;;5114933;28;20193;-64
2023/12/08 05:37:11;;;;;;;3.50;1.50;;;;;;;;;;5097976;28;20284;-64
2023/12/08 05:43:00;;;;;;;1.40;1.30;;;;;;;;;;5096252;28;20201;-64
2023/12/08 05:45:29;;;;;;;1.80;1.50;;;;;;;;;;5090825;28;20225;-64
2023/12/08 05:47:57;;;;;;;1.37;1.27;;;;;;;;;;5097172;28;20233;-63
2023/12/08 05:50:27;;;;;;;1.90;1.70;;;;;;;;;;5096567;28;20229;-63
2023/12/08 05:52:55;;;;;;;2.63;1.47;;;;;;;;;;5097116;28;20194;-64
2023/12/08 05:55:23;;;;;;;1.40;1.30;;;;;;;;;;5101321;28;20285;-64
2023/12/08 05:57:52;;;;;;;1.70;1.60;;;;;;;;;;5093471;28;20201;-63
2023/12/08 06:00:21;;;;;;;2.90;1.80;;;;;;;;;;5090657;28;20229;-64
2023/12/08 06:03:00;;;;;;;1.93;1.77;;;;;;;;;;5091136;28;20627;-64
2023/12/08 06:05:30;;;;;;;4.03;2.13;;;;;;;;;;5105487;28;20279;-64
2023/12/08 06:07:59;;;;;;;2.50;2.07;;;;;;;;;;5100717;28;20300;-64
2023/12/08 06:10:28;;;;;;;3.13;2.60;;;;;;;;;;5105675;28;20236;-64
2023/12/08 06:12:56;;;;;;;4.33;2.87;;;;;;;;;;5102909;28;20209;-63
2023/12/08 06:18:47;;;;;;;4.40;2.40;;;;;;;;;;5095432;28;20189;-64
2023/12/08 06:21:24;;;;;;;2.83;2.50;;;;;;;;;;5099782;28;20228;-64
2023/12/08 06:23:54;;;;;;;5.73;2.47;;;;;;;;;;5100023;28;20246;-64
2023/12/08 06:26:24;;;;;;;3.57;2.17;;;;;;;;;;5099200;28;20645;-64
2023/12/08 06:28:54;;;;;;;2.47;2.20;;;;;;;;;;5098934;28;20227;-64
2023/12/08 06:31:22;;;;;;;1.93;1.83;;;;;;;;;;5099832;28;20226;-64
2023/12/08 06:33:50;;;;;;;3.63;2.17;;;;;;;;;;5083729;28;20199;-64
2023/12/08 06:36:45;;;;;;;2.23;2.03;;;;;;;;;;5093607;28;20297;-64
2023/12/08 06:39:15;;;;;;;1.57;1.47;;;;;;;;;;5096922;28;20565;-63
2023/12/08 06:41:43;;;;;;;2.83;2.10;;;;;;;;;;5096167;28;20228;-64
2023/12/08 06:44:14;;;;;;;1.90;1.77;;;;;;;;;;5099434;28;20652;-63
2023/12/08 06:50:05;;;;;;;2.77;2.07;;;;;;;;;;5098561;28;20540;-64
2023/12/08 06:52:35;;;;;;;2.07;1.87;;;;;;;;;;5099314;28;20272;-64
2023/12/08 06:55:03;;;;;;;2.40;1.80;;;;;;;;;;5100800;28;20197;-64
2023/12/08 06:57:31;;;;;;;5.43;2.00;;;;;;;;;;5107423;28;20205;-64
2023/12/08 06:59:59;;;;;;;1.47;1.37;;;;;;;;;;5100839;28;20229;-64
2023/12/08 07:02:28;;;;;;;3.97;2.10;;;;;;;;;;5099033;28;20222;-63
2023/12/08 07:04:59;;;;;;;2.13;1.90;;;;;;;;;;5097637;28;20225;-63
2023/12/08 07:07:29;;;;;;;2.73;1.87;;;;;;;;;;5104511;28;20202;-64
2023/12/08 07:10:16;;;;;;;2.50;2.10;;;;;;;;;;5097084;28;20201;-64
2023/12/08 07:12:51;;;;;;;4.93;2.20;;;;;;;;;;5094563;28;20571;-64
2023/12/08 07:15:20;;;;;;;4.03;3.63;;;;;;;;;;5096072;28;20208;-63
2023/12/08 07:17:53;;;;;;;7.03;4.00;;;;;;;;;;5099453;28;20274;-64
2023/12/08 07:20:31;;;;;;;5.10;3.80;;;;;;;;;;5098992;28;20293;-64
2023/12/08 07:23:01;;;;;;;5.40;3.67;;;;;;;;;;5092241;28;20202;-64
2023/12/08 07:25:39;;;;;;;7.23;5.00;;;;;;;;;;5107126;28;20221;-64
2023/12/08 07:28:29;;;;;;;9.20;5.63;;;;;;;;;;5102566;28;20232;-64
2023/12/08 07:31:16;;;;;;;8.03;4.43;;;;;;;;;;5106450;28;20223;-64
2023/12/08 07:33:46;;;;;;;5.60;4.63;;;;;;;;;;5093707;28;20692;-64
2023/12/08 07:36:17;;;;;;;5.30;4.00;;;;;;;;;;5108512;28;20225;-64
2023/12/08 07:38:46;;;;;;;5.00;3.93;;;;;;;;;;5105511;28;20205;-65
2023/12/08 07:41:16;;;;;;;4.90;3.57;;;;;;;;;;5106309;28;20234;-64
2023/12/08 07:43:48;;;;;;;4.37;3.97;;;;;;;;;;5092818;28;20205;-64
2023/12/08 07:49:17;;;;;;;5.50;4.20;;;;;;;;;;5096029;28;20212;-64
2023/12/08 07:51:47;;;;;;;6.93;6.23;;;;;;;;;;5098390;28;20225;-64
2023/12/08 07:57:39;;;;;;;6.13;4.87;;;;;;;;;;5084703;28;20209;-64
2023/12/08 08:00:10;;;;;;;7.83;5.37;;;;;;;;;;5102663;28;20292;-63
2023/12/08 08:02:39;;;;;;;5.60;5.10;;;;;;;;;;5099025;28;20205;-63
2023/12/08 08:05:07;;;;;;;6.53;4.80;;;;;;;;;;5104327;28;20228;-64
2023/12/08 08:07:35;;;;;;;8.20;5.93;;;;;;;;;;5095186;28;20653;-63
2023/12/08 08:10:05;;;;;;;10.77;6.23;;;;;;;;;;5097781;28;20284;-63
2023/12/08 08:12:33;;;;;;;8.03;5.57;;;;;;;;;;5099745;28;20209;-63
2023/12/08 08:15:08;;;;;;;12.53;7.80;;;;;;;;;;5097595;28;20189;-62
2023/12/08 08:17:38;;;;;;;8.53;5.77;;;;;;;;;;5097433;28;20657;-63
2023/12/08 08:30:10;;;;;;;5.13;3.60;;;;;;;;;;5029074;28;20238;-62
2023/12/08 08:33:27;;;;;;;3.17;2.80;;;;;;;;;;5033116;28;20204;-62
2023/12/08 08:36:01;;;;;;;3.33;2.83;;;;;;;;;;5033514;28;20191;-64
2023/12/08 08:38:43;;;;;;;2.70;2.40;;;;;;;;;;5029681;28;20219;-66
2023/12/08 08:41:27;;;;;;;6.00;2.83;;;;;;;;;;5029739;28;20342;-63
2023/12/08 08:43:56;;;;;;;4.77;2.60;;;;;;;;;;5029188;28;20222;-63
2023/12/08 08:49:47;;;;;;;2.83;2.30;;;;;;;;;;5031399;28;20281;-65
2023/12/08 08:52:24;;;;;;;3.27;2.90;;;;;;;;;;5036255;28;20267;-64
2023/12/08 08:54:52;;;;;;;4.57;2.80;;;;;;;;;;5028859;28;20238;-73
2023/12/08 08:57:20;;;;;;;3.37;2.70;;;;;;;;;;5036640;28;20682;-72
2023/12/08 08:59:48;;;;;;;2.93;2.63;;;;;;;;;;5036363;28;20203;-73
2023/12/08 09:02:17;;;;;;;3.30;2.40;;;;;;;;;;5037224;28;20254;-69
2023/12/08 09:04:51;;;;;;;2.23;2.03;;;;;;;;;;5033419;28;20354;-70
2023/12/08 09:07:19;;;;;;;3.57;2.80;;;;;;;;;;5032911;28;20223;-69
2023/12/08 09:09:49;;;;;;;4.00;2.57;;;;;;;;;;5037018;28;20646;-71
2023/12/08 09:12:17;;;;;;;2.47;2.27;;;;;;;;;;5036014;28;20195;-70
2023/12/08 09:14:45;;;;;;;2.53;2.33;;;;;;;;;;5037624;28;20227;-69
2023/12/08 09:17:18;;;;;;;7.23;2.57;;;;;;;;;;5030186;28;20233;-71
2023/12/08 09:19:47;;;;;;;3.43;2.27;;;;;;;;;;5031022;28;20199;-66
2023/12/08 09:22:16;;;;;;;2.60;2.40;;;;;;;;;;5031534;28;20232;-69
2023/12/08 09:24:44;;;;;;;2.70;2.50;;;;;;;;;;5037622;28;20199;-71
2023/12/08 09:27:13;;;;;;;2.67;2.40;;;;;;;;;;5035978;28;20291;-71
2023/12/08 09:29:41;;;;;;;2.27;2.10;;;;;;;;;;5035847;28;20339;-64
2023/12/08 09:32:10;;;;;;;2.87;2.37;;;;;;;;;;5036774;28;20200;-64
2023/12/08 09:34:39;;;;;;;2.60;2.40;;;;;;;;;;5036842;28;20219;-62
2023/12/08 09:37:07;;;;;;;2.67;2.47;;;;;;;;;;5036236;28;20223;-62
2023/12/08 09:40:01;;;;;;;2.97;2.73;;;;;;;;;;5038196;28;20722;-62
2023/12/08 09:42:36;;;;;;;2.63;2.43;;;;;;;;;;5036208;28;20215;-61
2023/12/08 09:45:13;;;;;;;2.53;2.33;;;;;;;;;;5037184;28;20199;-64
2023/12/08 09:47:42;;;;;;;2.43;2.23;;;;;;;;;;5036757;28;20224;-63
2023/12/08 09:50:10;;;;;;;3.50;2.37;;;;;;;;;;5039357;28;20203;-61
2023/12/08 09:52:38;;;;;;;2.87;2.20;;;;;;;;;;5039591;28;20204;-62
2023/12/08 09:55:07;;;;;;;2.77;2.53;;;;;;;;;;5040407;28;20207;-61
2023/12/08 09:57:37;;;;;;;2.93;2.73;;;;;;;;;;5039668;28;20230;-62
2023/12/08 10:03:10;;;;;;;3.07;2.33;;;;;;;;;;5032011;28;20207;-63
2023/12/08 10:05:38;;;;;;;4.53;2.80;;;;;;;;;;5040135;28;20220;-61
2023/12/08 10:08:08;;;;;;;4.80;3.53;;;;;;;;;;5039689;28;20219;-62
2023/12/08 10:10:37;;;;;;;5.17;3.23;;;;;;;;;;5040118;28;20207;-63
2023/12/08 10:13:15;;;;;;;5.03;3.57;;;;;;;;;;5039627;28;20200;-61
2023/12/08 10:15:44;;;;;;;5.93;3.77;;;;;;;;;;5039351;28;20213;-61
2023/12/08 10:18:22;;;;;;;4.17;3.67;;;;;;;;;;5039814;28;20220;-60
2023/12/08 10:20:51;;;;;;;4.37;3.97;;;;;;;;;;5039544;28;20204;-61
2023/12/08 10:23:22;;;;;;;4.87;4.37;;;;;;;;;;5039776;28;20664;-62
2023/12/08 10:25:50;;;;;;;5.20;3.77;;;;;;;;;;5038879;28;20302;-62
2023/12/08 10:28:22;;;;;;;5.10;3.33;;;;;;;;;;5039395;28;20365;-62
2023/12/08 10:30:51;;;;;;;7.10;4.70;;;;;;;;;;5039895;28;20234;-61
2023/12/08 10:33:20;;;;;;;7.77;4.40;;;;;;;;;;5039574;28;20231;-62
2023/12/08 10:35:48;;;;;;;6.20;4.20;;;;;;;;;;5038722;28;20265;-62
2023/12/08 10:38:17;;;;;;;5.27;4.77;;;;;;;;;;5039683;28;20259;-62
2023/12/08 10:40:49;;;;;;;5.57;4.30;;;;;;;;;;5039599;28;20295;-61
2023/12/08 10:43:22;;;;;;;5.27;4.43;;;;;;;;;;5039077;28;20565;-62
2023/12/08 10:45:52;;;;;;;5.43;4.40;;;;;;;;;;5038931;28;20230;-63
2023/12/08 10:48:20;;;;;;;5.37;4.03;;;;;;;;;;5039397;28;20226;-62
2023/12/08 10:50:49;;;;;;;4.70;4.20;;;;;;;;;;5038597;28;20199;-62
2023/12/08 10:53:18;;;;;;;3.60;3.30;;;;;;;;;;5039204;28;20577;-62
2023/12/08 10:55:51;;;;;;;5.10;3.90;;;;;;;;;;5038933;28;20326;-64
2023/12/08 10:58:21;;;;;;;6.33;3.97;;;;;;;;;;5038816;28;20322;-64
2023/12/08 11:00:51;;;;;;;6.13;3.80;;;;;;;;;;5039368;28;20227;-63
2023/12/08 11:03:21;;;;;;;7.50;3.90;;;;;;;;;;5039067;28;20258;-62
2023/12/08 11:08:17;;;;;;;6.10;4.03;;;;;;;;;;5063115;27;20987;-68
2023/12/08 11:10:47;;;;;;;5.73;4.07;;;;;;;;;;5068159;28;20631;-64
2023/12/08 11:13:20;;;;;;;4.63;3.93;;;;;;;;;;5064955;28;20202;-65
2023/12/08 11:15:53;;;;;;;4.47;3.23;;;;;;;;;;5073903;28;20209;-65
2023/12/08 11:18:24;;;;;;;4.10;3.73;;;;;;;;;;5074235;28;20222;-67
2023/12/08 11:20:53;;;;;;;3.50;3.20;;;;;;;;;;5074262;28;20205;-66
2023/12/08 11:23:22;;;;;;;4.07;3.33;;;;;;;;;;5074533;28;20264;-67
2023/12/08 11:25:56;;;;;;;3.80;3.10;;;;;;;;;;5073920;28;20293;-66
2023/12/08 11:28:28;;;;;;;3.33;3.03;;;;;;;;;;5073191;28;20225;-70
2023/12/08 11:30:58;;;;;;;5.37;3.10;;;;;;;;;;5074472;28;20288;-65
2023/12/08 11:33:30;;;;;;;3.53;3.13;;;;;;;;;;5065796;28;20616;-67
2023/12/08 11:36:06;;;;;;;4.70;3.47;;;;;;;;;;5061608;28;20564;-64
2023/12/08 11:38:55;;;;;;;3.37;3.07;;;;;;;;;;5074487;28;20226;-65
2023/12/08 11:41:27;;;;;;;3.87;3.03;;;;;;;;;;5074810;28;20210;-65
2023/12/08 11:43:55;;;;;;;3.77;3.20;;;;;;;;;;5069752;28;20202;-65
2023/12/08 11:46:23;;;;;;;3.63;3.33;;;;;;;;;;5072823;28;20203;-65
2023/12/08 11:48:52;;;;;;;3.20;2.80;;;;;;;;;;5071021;28;20199;-63
2023/12/08 11:51:21;;;;;;;3.50;3.20;;;;;;;;;;5068102;28;20214;-66
2023/12/08 11:53:55;;;;;;;4.03;3.40;;;;;;;;;;5076697;28;20605;-66
2023/12/08 11:56:40;;;;;;;4.43;2.90;;;;;;;;;;5074910;28;20197;-66
2023/12/08 11:59:23;;;;;;;4.00;3.10;;;;;;;;;;5070478;28;20289;-66
2023/12/08 12:02:09;;;;;;;8.13;3.00;;;;;;;;;;5062605;28;20292;-67
2023/12/08 12:04:39;;;;;;;3.63;3.03;;;;;;;;;;5070947;28;20194;-67
2023/12/08 12:07:08;;;;;;;3.70;3.10;;;;;;;;;;5073093;28;20241;-66
2023/12/08 12:09:39;;;;;;;4.23;3.40;;;;;;;;;;5073275;28;20716;-65
2023/12/08 12:12:16;;;;;;;5.70;4.80;;;;;;;;;;5073708;28;20205;-66
2023/12/08 12:14:50;;;;;;;4.83;3.70;;;;;;;;;;5067445;28;20202;-65
2023/12/08 12:17:19;;;;;;;4.60;4.07;;;;;;;;;;5063854;28;20227;-64
2023/12/08 12:19:48;;;;;;;5.50;4.03;;;;;;;;;;5054970;28;20218;-64
2023/12/08 12:22:20;;;;;;;5.57;3.70;;;;;;;;;;5055847;28;20210;-65
2023/12/08 12:24:50;;;;;;;4.70;3.90;;;;;;;;;;5059774;28;20207;-65
2023/12/08 12:27:19;;;;;;;4.73;4.20;;;;;;;;;;5059360;28;20256;-65
2023/12/08 12:29:51;;;;;;;4.93;4.23;;;;;;;;;;5059673;28;20302;-66
2023/12/08 12:32:20;;;;;;;14.30;8.97;;;;;;;;;;5060069;28;20203;-64
2023/12/08 12:34:48;;;;;;;12.20;8.10;;;;;;;;;;5059932;28;20677;-66
2023/12/08 12:37:19;;;;;;;6.17;5.50;;;;;;;;;;5058916;28;20705;-66
2023/12/08 12:39:51;;;;;;;16.83;9.20;;;;;;;;;;5049978;28;20250;-65
2023/12/08 12:42:19;;;;;;;7.07;6.23;;;;;;;;;;5053042;28;20230;-65
2023/12/08 12:45:07;;;;;;;7.63;5.70;;;;;;;;;;5058139;28;20287;-65
2023/12/08 12:47:36;;;;;;;7.70;5.53;;;;;;;;;;5051439;28;20222;-63
2023/12/08 12:50:05;;;;;;;5.87;5.23;;;;;;;;;;5050184;28;20282;-65
2023/12/08 12:52:36;;;;;;;8.93;4.97;;;;;;;;;;5055267;28;20207;-64
2023/12/08 12:55:22;;;;;;;6.40;5.30;;;;;;;;;;5061921;28;20270;-64
2023/12/08 12:57:50;;;;;;;6.47;5.63;;;;;;;;;;5065342;28;20242;-65
2023/12/08 13:00:31;;;;;;;7.77;6.03;;;;;;;;;;5063231;28;20202;-65
2023/12/08 13:03:08;;;;;;;5.33;4.83;;;;;;;;;;5057881;28;20210;-65
2023/12/08 13:05:44;;;;;;;11.13;5.67;;;;;;;;;;5051233;28;20202;-65
2023/12/08 13:08:24;;;;;;;5.80;5.17;;;;;;;;;;5058832;28;20234;-67
2023/12/08 13:11:29;;;;;;;;;;;;;;;;;;;;;
2023/12/08 13:14:18;;;;;;;9.33;5.97;;;;;;;;;;5057550;28;20198;-66
2023/12/08 13:16:46;;;;;;;7.63;6.30;;;;;;;;;;5058189;28;20223;-65
2023/12/08 13:19:14;;;;;;;8.27;6.77;;;;;;;;;;5055433;28;20213;-64
2023/12/08 13:21:43;;;;;;;8.43;6.80;;;;;;;;;;5058216;28;20294;-65
2023/12/08 13:24:12;;;;;;;9.00;6.83;;;;;;;;;;5056206;28;20727;-65
2023/12/08 13:26:42;;;;;;;11.23;7.27;;;;;;;;;;5046358;28;20223;-65
2023/12/08 13:29:10;;;;;;;12.87;7.43;;;;;;;;;;5055422;28;20226;-67
2023/12/08 13:31:38;;;;;;;11.67;7.87;;;;;;;;;;5057507;28;20202;-66
2023/12/08 13:34:06;;;;;;;10.20;7.30;;;;;;;;;;5058147;28;20557;-67
2023/12/08 13:36:36;;;;;;;9.83;7.53;;;;;;;;;;5056982;28;21652;-66
2023/12/08 13:39:06;;;;;;;10.70;7.87;;;;;;;;;;5057160;28;20209;-66
2023/12/08 13:41:35;;;;;;;10.20;7.23;;;;;;;;;;5055285;28;20207;-67
2023/12/08 13:44:15;;;;;;;12.20;8.07;;;;;;;;;;5058479;28;20199;-66
2023/12/08 13:46:45;;;;;;;13.07;8.00;;;;;;;;;;5058667;28;20280;-65
2023/12/08 13:49:14;;;;;;;12.27;7.80;;;;;;;;;;5059907;28;20689;-68
2023/12/08 13:51:42;;;;;;;8.50;7.60;;;;;;;;;;5057865;28;20202;-67
2023/12/08 13:54:12;;;;;;;8.57;7.30;;;;;;;;;;5057881;28;20203;-69
2023/12/08 13:56:41;;;;;;;9.40;7.67;;;;;;;;;;5052729;28;20215;-69
2023/12/08 13:59:16;;;;;;;9.30;7.40;;;;;;;;;;5045782;28;20279;-68
2023/12/08 14:01:48;;;;;;;9.30;6.83;;;;;;;;;;5044731;28;20264;-69
2023/12/08 14:04:17;;;;;;;6.93;6.23;;;;;;;;;;5057601;28;20210;-68
2023/12/08 14:06:46;;;;;;;9.47;6.90;;;;;;;;;;5056918;28;20318;-68
2023/12/08 14:09:14;;;;;;;13.07;9.00;;;;;;;;;;5057317;28;20226;-72
2023/12/08 14:11:44;;;;;;;23.13;13.50;;;;;;;;;;5063070;28;20238;-67
2023/12/08 14:14:16;;;;;;;11.13;7.50;;;;;;;;;;5056928;28;20206;-71
2023/12/08 14:16:47;;;;;;;9.33;6.33;;;;;;;;;;5057063;28;20218;-69
2023/12/08 14:29:59;;;;;;;8.47;6.50;;;;;;;;;;4937239;29;20678;-65
2023/12/08 14:33:07;;;;;;;8.40;6.43;;;;;;;;;;4974158;28;20669;-65
2023/12/08 14:36:16;;;;;;;8.03;6.00;;;;;;;;;;4994648;28;20215;-68
2023/12/08 14:39:23;;;;;;;;;;;;;;;;;;;;;
2023/12/08 14:46:05;;;;;;;;;;;;;;;;;;;;;
2023/12/08 14:49:22;;;;;;;8.53;7.60;;;;;;;;;;4501997;27;18441610;-68
2023/12/08 14:56:11;;;;;;;;;;;;;;;;;;;;;
2023/12/08 14:59:04;;;;;;;12.43;7.87;;;;;;;;;;5107226;28;20648;-73
2023/12/08 15:02:19;;;;;;;11.30;8.60;;;;;;;;;;5135004;28;20283;-72
2023/12/08 15:08:44;;;;;;;9.57;7.90;;;;;;;;;;4990587;28;20232;-67
2023/12/08 15:11:19;;;;;;;10.87;8.03;;;;;;;;;;4995093;28;20262;-73
2023/12/08 15:13:51;;;;;;;10.53;7.50;;;;;;;;;;5043269;28;20206;-73
2023/12/08 15:19:46;;;;;;;11.67;7.50;;;;;;;;;;5044094;28;20228;-73
2023/12/08 15:22:17;;;;;;;10.30;8.43;;;;;;;;;;5032195;28;20379;-73
2023/12/08 15:24:49;;;;;;;12.00;8.20;;;;;;;;;;5041430;28;20235;-72
2023/12/08 15:27:20;;;;;;;13.97;8.83;;;;;;;;;;5034078;28;20298;-73
2023/12/08 15:29:54;;;;;;;10.77;8.60;;;;;;;;;;5039217;28;20227;-74
2023/12/08 15:32:22;;;;;;;13.30;8.03;;;;;;;;;;5040773;28;20198;-74
2023/12/08 15:34:51;;;;;;;15.67;8.23;;;;;;;;;;5042226;28;20606;-73
2023/12/08 15:37:54;;;;;;;12.30;9.27;;;;;;;;;;5033899;28;20219;-70
2023/12/08 15:40:22;;;;;;;11.30;8.50;;;;;;;;;;5041966;28;20204;-71
2023/12/08 15:42:52;;;;;;;11.73;8.33;;;;;;;;;;5031162;28;20203;-75
2023/12/08 15:48:43;;;;;;;10.93;8.07;;;;;;;;;;5116675;28;20739;-74
2023/12/08 15:51:13;;;;;;;12.67;8.33;;;;;;;;;;5118173;28;20212;-72
2023/12/08 15:53:43;;;;;;;13.20;8.23;;;;;;;;;;5119524;28;20284;-73
2023/12/08 15:56:12;;;;;;;8.97;7.73;;;;;;;;;;5120306;28;20224;-73
2023/12/08 16:02:42;;;;;;;9.30;7.60;;;;;;;;;;5102055;28;20211;-75
2023/12/08 16:05:15;;;;;;;8.67;7.87;;;;;;;;;;5099602;28;20197;-74
2023/12/08 16:07:43;;;;;;;8.60;7.17;;;;;;;;;;5100686;28;20221;-74
2023/12/08 16:10:42;;;;;;;9.23;7.63;;;;;;;;;;5106706;28;20207;-76
2023/12/08 16:13:14;;;;;;;9.63;7.00;;;;;;;;;;5109167;28;20201;-75
2023/12/08 16:15:43;;;;;;;10.03;7.67;;;;;;;;;;5100331;28;20570;-74
2023/12/08 16:18:12;;;;;;;9.17;6.97;;;;;;;;;;5108548;28;20766;-74